TimePST,TemperatureF,Dew PointF,Humidity,Sea Level PressureIn,VisibilityMPH,Wind Direction,Wind SpeedMPH,Gust SpeedMPH,PrecipitationIn,Events,Conditions,WindDirDegrees,DateUTC
12:05 AM,24.8,24.8,100,29.85,10.0,ENE,6.9,-,N/A,,Overcast,60,2014-01-31 08:05:00
12:11 AM,24.8,24.8,100,29.85,10.0,ENE,6.9,-,N/A,,Mostly Cloudy,60,2014-01-31 08:11:00
12:16 AM,24.8,24.8,100,29.85,9.0,ENE,5.8,-,N/A,Snow,Light Snow,70,2014-01-31 08:16:00
12:26 AM,24.8,24.8,100,29.85,8.0,East,4.6,-,N/A,Snow,Light Snow,80,2014-01-31 08:26:00
12:31 AM,24.8,24.8,100,29.85,8.0,East,4.6,-,N/A,Snow,Light Snow,80,2014-01-31 08:31:00
12:46 AM,24.8,24.8,100,29.85,8.0,East,4.6,-,N/A,Snow,Light Snow,80,2014-01-31 08:46:00
12:53 AM,24.8,24.8,100,29.85,8.0,East,3.5,-,N/A,Snow,Light Snow,90,2014-01-31 08:53:00
12:58 AM,24.8,24.1,97,29.94,10.0,East,4.6,-,0.00,Snow,Light Snow,80,2014-01-31 08:58:00
1:23 AM,24.8,23.0,93,29.86,10.0,NE,5.8,-,N/A,Snow,Light Snow,50,2014-01-31 09:23:00
1:24 AM,24.8,23.0,93,29.86,10.0,NE,5.8,-,N/A,,Overcast,50,2014-01-31 09:24:00
1:49 AM,24.8,24.8,100,29.87,10.0,NNE,5.8,-,N/A,,Overcast,20,2014-01-31 09:49:00
1:58 AM,24.8,24.1,97,29.96,10.0,NNE,5.8,-,0.00,,Overcast,30,2014-01-31 09:58:00
1:59 AM,24.8,24.8,100,29.87,10.0,NNE,5.8,-,N/A,,Overcast,30,2014-01-31 09:59:00
2:30 AM,24.8,23.0,93,29.87,10.0,NNE,5.8,-,N/A,,Mostly Cloudy,20,2014-01-31 10:30:00
2:58 AM,24.1,22.8,95,29.96,10.0,NE,5.8,-,0.00,Snow,Light Snow,40,2014-01-31 10:58:00
3:09 AM,23.0,23.0,100,29.87,10.0,NE,5.8,-,N/A,,Overcast,40,2014-01-31 11:09:00
3:58 AM,23.0,21.7,95,29.96,10.0,ENE,2.3,-,0.00,,Overcast,70,2014-01-31 11:58:00
4:24 AM,23.0,21.2,93,29.87,10.0,North,2.3,-,N/A,,Overcast,350,2014-01-31 12:24:00
4:48 AM,21.2,21.2,100,29.88,10.0,NW,2.3,-,N/A,,Overcast,320,2014-01-31 12:48:00
4:58 AM,22.3,21.4,96,29.97,10.0,NNW,2.3,-,0.00,,Overcast,330,2014-01-31 12:58:00
5:03 AM,23.0,21.2,93,29.88,10.0,NNW,3.5,-,N/A,,Overcast,340,2014-01-31 13:03:00
5:14 AM,23.0,21.2,93,29.88,10.0,NNW,3.5,-,N/A,,Overcast,340,2014-01-31 13:14:00
5:58 AM,22.5,21.6,96,29.97,10.0,North,2.3,-,0.00,,Overcast,10,2014-01-31 13:58:00
6:58 AM,21.6,20.3,95,29.99,10.0,Calm,Calm,-,N/A,,Overcast,0,2014-01-31 14:58:00
7:12 AM,21.2,19.4,93,29.89,7.0,SSW,1.2,-,N/A,Snow,Light Snow,210,2014-01-31 15:12:00
7:28 AM,21.2,19.4,93,29.90,9.0,West,2.3,-,N/A,,Overcast,270,2014-01-31 15:28:00
7:58 AM,20.3,19.0,95,30.01,10.0,NW,3.5,-,0.00,,Overcast,310,2014-01-31 15:58:00
8:08 AM,21.2,19.4,93,29.92,10.0,WNW,3.5,-,N/A,,Overcast,300,2014-01-31 16:08:00
8:09 AM,21.2,19.4,93,29.92,10.0,WNW,2.3,-,N/A,Snow,Light Snow,290,2014-01-31 16:09:00
8:19 AM,21.2,19.4,93,29.92,10.0,NW,4.6,-,N/A,Snow,Light Snow,310,2014-01-31 16:19:00
8:30 AM,21.2,21.2,100,29.93,10.0,WNW,2.3,-,N/A,,Overcast,300,2014-01-31 16:30:00
8:58 AM,23.2,21.7,94,30.03,10.0,Calm,Calm,-,0.00,,Overcast,0,2014-01-31 16:58:00
9:33 AM,23.0,21.2,93,29.94,10.0,SSW,2.3,-,N/A,,Overcast,210,2014-01-31 17:33:00
9:48 AM,23.0,21.2,93,29.94,10.0,Calm,Calm,-,N/A,,Overcast,0,2014-01-31 17:48:00
9:58 AM,23.4,21.6,93,30.04,10.0,South,2.3,-,N/A,,Overcast,190,2014-01-31 17:58:00
10:30 AM,24.8,23.0,93,29.95,10.0,South,1.2,-,N/A,,Mostly Cloudy,180,2014-01-31 18:30:00
10:49 AM,24.8,23.0,93,29.95,10.0,SSW,1.2,-,N/A,,Mostly Cloudy,210,2014-01-31 18:49:00
10:58 AM,25.7,23.4,91,30.04,10.0,South,1.2,-,0.00,,Mostly Cloudy,190,2014-01-31 18:58:00
11:54 AM,28.4,26.6,93,29.94,10.0,WNW,2.3,-,N/A,,Overcast,290,2014-01-31 19:54:00
11:58 AM,28.4,26.6,93,30.03,10.0,West,3.5,-,N/A,,Mostly Cloudy,260,2014-01-31 19:58:00
12:52 PM,30.2,26.6,86,29.93,10.0,West,4.6,-,N/A,,Clear,260,2014-01-31 20:52:00
12:58 PM,29.8,26.8,88,30.01,10.0,West,2.3,-,0.00,,Partly Cloudy,260,2014-01-31 20:58:00
1:08 PM,30.2,24.8,80,29.94,10.0,WSW,5.8,-,N/A,,Mostly Cloudy,250,2014-01-31 21:08:00
1:13 PM,30.2,24.8,80,29.94,10.0,SW,5.8,-,N/A,,Mostly Cloudy,230,2014-01-31 21:13:00
1:58 PM,31.3,26.6,83,30.01,10.0,West,4.6,-,0.00,,Mostly Cloudy,280,2014-01-31 21:58:00
2:00 PM,30.2,26.6,86,29.93,10.0,West,3.5,-,N/A,,Scattered Clouds,270,2014-01-31 22:00:00
2:14 PM,30.2,26.6,86,29.93,10.0,West,4.6,-,N/A,,Partly Cloudy,280,2014-01-31 22:14:00
2:34 PM,32.0,26.6,80,29.93,10.0,West,5.8,-,N/A,,Mostly Cloudy,260,2014-01-31 22:34:00
2:44 PM,32.0,26.6,80,29.93,10.0,WSW,6.9,-,N/A,,Scattered Clouds,250,2014-01-31 22:44:00
2:58 PM,30.4,25.5,82,30.03,10.0,West,5.8,-,0.00,,Scattered Clouds,270,2014-01-31 22:58:00
3:23 PM,30.2,24.8,80,29.95,10.0,West,3.5,-,N/A,,Mostly Cloudy,280,2014-01-31 23:23:00
3:28 PM,32.0,24.8,75,29.95,10.0,West,4.6,-,N/A,,Scattered Clouds,280,2014-01-31 23:28:00
3:47 PM,28.4,23.0,80,29.95,10.0,West,5.8,-,N/A,,Partly Cloudy,260,2014-01-31 23:47:00
3:58 PM,28.2,22.6,80,30.04,10.0,WSW,8.1,-,0.00,,Clear,240,2014-01-31 23:58:00
4:14 PM,26.6,21.2,80,29.95,10.0,WSW,9.2,-,N/A,,Clear,240,2014-02-01 00:14:00
4:58 PM,22.1,18.3,85,30.06,10.0,WSW,8.1,-,0.00,,Mostly Cloudy,250,2014-02-01 00:58:00
5:46 PM,21.2,19.4,93,29.96,10.0,WSW,6.9,-,N/A,Snow,Light Snow,240,2014-02-01 01:46:00
5:55 PM,21.2,17.6,86,29.97,10.0,WSW,6.9,-,N/A,,Overcast,240,2014-02-01 01:55:00
5:58 PM,20.3,17.2,88,30.08,10.0,WSW,5.8,-,0.00,,Overcast,240,2014-02-01 01:58:00
6:58 PM,17.2,15.6,93,30.09,10.0,West,8.1,-,0.00,,Clear,260,2014-02-01 02:58:00
7:58 PM,16.2,14.2,92,30.10,10.0,West,3.5,-,0.00,,Partly Cloudy,280,2014-02-01 03:58:00
8:08 PM,15.8,14.0,93,29.98,10.0,WSW,3.5,-,N/A,,Mostly Cloudy,250,2014-02-01 04:08:00
8:34 PM,14.0,12.2,93,29.99,10.0,West,5.8,-,N/A,Snow,Light Snow,270,2014-02-01 04:34:00
8:43 PM,15.8,14.0,93,29.99,10.0,West,4.6,-,N/A,,Overcast,260,2014-02-01 04:43:00
8:49 PM,15.8,14.0,93,29.99,10.0,NW,5.8,-,N/A,Snow,Light Snow,310,2014-02-01 04:49:00
8:54 PM,17.6,15.8,93,29.99,10.0,WNW,4.6,-,N/A,Snow,Light Snow,300,2014-02-01 04:54:00
8:58 PM,18.1,15.6,90,30.10,10.0,WNW,4.6,-,0.00,Snow,Light Snow,300,2014-02-01 04:58:00
8:59 PM,17.6,14.0,86,29.99,10.0,NW,5.8,-,N/A,,Mostly Cloudy,310,2014-02-01 04:59:00
9:14 PM,17.6,14.0,86,30.00,10.0,NW,5.8,-,N/A,,Mostly Cloudy,310,2014-02-01 05:14:00
9:19 PM,15.8,14.0,93,30.00,10.0,Variable,2.3,-,N/A,,Scattered Clouds,0,2014-02-01 05:19:00
9:58 PM,19.2,17.2,92,30.11,10.0,NW,6.9,-,0.00,,Clear,320,2014-02-01 05:58:00
10:58 PM,13.3,11.3,92,30.13,10.0,WNW,4.6,-,0.00,,Clear,290,2014-02-01 06:58:00
11:58 PM,16.0,11.5,82,30.14,10.0,NNW,5.8,-,N/A,,Clear,330,2014-02-01 07:58:00